createdAt,value
2023-05-19T00:00:01.200Z,18.10
2023-05-19T00:02:34.173Z,16.52
2023-05-19T00:05:02.345Z,15.18
2023-05-19T00:07:31.517Z,16.48
2023-05-19T00:09:58.886Z,16.45
2023-05-19T00:12:26.558Z,16.58
2023-05-19T00:15:00.144Z,16.63
2023-05-19T00:17:30.410Z,18.33
2023-05-19T00:19:58.085Z,16.17
2023-05-19T00:22:26.119Z,16.23
2023-05-19T00:24:53.200Z,16.83
2023-05-19T00:27:20.472Z,16.48
2023-05-19T00:29:47.859Z,15.93
2023-05-19T00:32:15.955Z,14.90
2023-05-19T00:34:43.203Z,15.48
2023-05-19T00:37:10.265Z,15.15
2023-05-19T00:39:37.398Z,15.55
2023-05-19T00:42:06.063Z,16.35
2023-05-19T00:44:35.928Z,15.80
2023-05-19T00:47:05.720Z,15.65
2023-05-19T00:49:37.064Z,16.90
2023-05-19T00:52:04.597Z,15.98
2023-05-19T00:54:31.710Z,16.02
2023-05-19T00:56:59.336Z,16.83
2023-05-19T00:59:26.669Z,15.93
2023-05-19T01:01:53.715Z,15.07
2023-05-19T01:04:21.956Z,16.30
2023-05-19T01:06:58.120Z,16.30
2023-05-19T01:09:25.179Z,15.95
2023-05-19T01:11:52.361Z,17.38
2023-05-19T01:14:19.669Z,19.98
2023-05-19T01:16:51.894Z,19.55
2023-05-19T01:19:31.022Z,18.92
2023-05-19T01:22:16.567Z,18.52
2023-05-19T01:25:11.493Z,18.25
2023-05-19T01:28:00.333Z,17.95
2023-05-19T01:30:29.239Z,16.65
2023-05-19T01:33:01.209Z,16.63
2023-05-19T01:35:28.530Z,16.33
2023-05-19T01:37:57.938Z,17.85
2023-05-19T01:40:25.821Z,18.45
2023-05-19T01:42:57.886Z,18.73
2023-05-19T01:45:26.230Z,21.45
2023-05-19T01:47:57.815Z,21.13
2023-05-19T01:50:25.020Z,21.98
2023-05-19T01:52:52.186Z,22.83
2023-05-19T01:55:19.442Z,25.42
2023-05-19T01:58:02.077Z,25.75
2023-05-19T02:00:51.894Z,25.90
2023-05-19T02:03:26.684Z,24.40
2023-05-19T02:06:03.029Z,23.13
2023-05-19T02:08:30.090Z,21.17
2023-05-19T02:11:27.667Z,20.40
2023-05-19T02:13:56.415Z,19.83
2023-05-19T02:16:26.997Z,21.00
2023-05-19T02:21:21.320Z,19.70
2023-05-19T02:23:49.190Z,18.88
2023-05-19T02:26:16.241Z,19.13
2023-05-19T02:28:43.253Z,18.35
2023-05-19T02:31:10.351Z,19.65
2023-05-19T02:33:37.712Z,17.58
2023-05-19T02:36:05.613Z,19.63
2023-05-19T02:38:34.498Z,19.25
2023-05-19T02:41:01.815Z,19.75
2023-05-19T02:43:31.852Z,19.67
2023-05-19T02:45:58.962Z,18.58
2023-05-19T02:48:26.437Z,20.40
2023-05-19T02:50:53.506Z,20.70
2023-05-19T02:53:20.499Z,21.23
2023-05-19T02:55:47.629Z,22.60
2023-05-19T02:58:14.781Z,21.58
2023-05-19T03:00:41.992Z,21.02
2023-05-19T03:03:10.490Z,20.25
2023-05-19T03:05:37.703Z,20.92
2023-05-19T03:08:05.020Z,21.48
2023-05-19T03:10:32.325Z,21.48
2023-05-19T03:12:59.772Z,21.20
2023-05-19T03:15:26.842Z,20.35
2023-05-19T03:17:56.638Z,20.90
2023-05-19T03:20:24.667Z,20.08
2023-05-19T03:22:51.845Z,21.13
2023-05-19T03:25:18.950Z,21.35
2023-05-19T03:27:45.973Z,20.27
2023-05-19T03:30:13.781Z,20.75
2023-05-19T03:32:41.060Z,20.58
2023-05-19T03:35:08.478Z,20.83
2023-05-19T03:37:35.785Z,21.83
2023-05-19T03:40:02.856Z,20.55
2023-05-19T03:42:30.163Z,19.70
2023-05-19T03:44:57.285Z,20.92
2023-05-19T03:47:24.417Z,20.55
2023-05-19T03:49:51.560Z,18.58
2023-05-19T03:52:18.681Z,18.95
2023-05-19T03:54:46.003Z,18.13
2023-05-19T03:57:13.904Z,17.10
2023-05-19T03:59:41.600Z,18.67
2023-05-19T04:02:14.057Z,18.77
2023-05-19T04:04:41.557Z,18.10
2023-05-19T04:07:08.811Z,17.77
2023-05-19T04:09:36.264Z,17.17
2023-05-19T04:12:03.385Z,15.75
2023-05-19T04:14:30.437Z,15.77
2023-05-19T04:16:57.652Z,15.88
2023-05-19T04:19:28.170Z,17.83
2023-05-19T04:21:55.480Z,19.58
2023-05-19T04:24:22.568Z,16.75
2023-05-19T04:26:49.613Z,15.60
2023-05-19T04:29:18.516Z,17.10
2023-05-19T04:31:46.122Z,16.48
2023-05-19T04:34:13.235Z,15.75
2023-05-19T04:36:40.648Z,16.98
2023-05-19T04:39:10.213Z,17.65
2023-05-19T04:41:40.630Z,19.17
2023-05-19T04:44:24.194Z,17.90
2023-05-19T04:46:54.574Z,19.35
2023-05-19T04:49:21.866Z,19.48
2023-05-19T04:51:53.280Z,19.23
2023-05-19T04:54:22.014Z,20.02
2023-05-19T04:56:49.073Z,19.80
2023-05-19T04:59:16.112Z,21.73
2023-05-19T05:01:43.544Z,20.90
2023-05-19T05:04:10.804Z,19.45
2023-05-19T05:06:40.658Z,19.33
2023-05-19T05:09:12.444Z,19.30
2023-05-19T05:11:40.765Z,20.30
2023-05-19T05:14:09.644Z,21.75
2023-05-19T05:16:37.425Z,20.55
2023-05-19T05:19:04.891Z,19.42
2023-05-19T05:21:33.111Z,19.55
2023-05-19T05:24:00.506Z,18.95
2023-05-19T05:26:30.385Z,18.02
2023-05-19T05:28:57.636Z,18.65
2023-05-19T05:31:24.820Z,18.30
2023-05-19T05:33:52.103Z,18.63
2023-05-19T05:36:19.333Z,18.33
2023-05-19T05:38:46.552Z,19.00
2023-05-19T05:41:13.610Z,19.27
2023-05-19T05:43:40.928Z,17.92
2023-05-19T05:46:08.083Z,17.67
2023-05-19T05:48:35.563Z,16.75
2023-05-19T05:51:03.034Z,16.52
2023-05-19T05:53:31.232Z,15.95
2023-05-19T05:55:58.732Z,16.55
2023-05-19T05:58:26.076Z,14.25
2023-05-19T06:00:57.277Z,14.80
2023-05-19T06:03:24.837Z,13.75
2023-05-19T06:05:53.259Z,14.20
2023-05-19T06:08:20.529Z,15.15
2023-05-19T06:10:47.735Z,13.73
2023-05-19T06:13:18.123Z,14.52
2023-05-19T06:15:45.369Z,14.25
2023-05-19T06:18:12.572Z,15.32
2023-05-19T06:20:39.711Z,16.05
2023-05-19T06:23:06.975Z,16.98
2023-05-19T06:25:36.903Z,19.45
2023-05-19T06:28:04.152Z,16.15
2023-05-19T06:30:31.697Z,14.45
2023-05-19T06:32:59.119Z,15.20
2023-05-19T06:35:26.234Z,13.18
2023-05-19T06:37:54.346Z,14.80
2023-05-19T06:40:22.539Z,15.48
2023-05-19T06:42:49.637Z,15.20
2023-05-19T06:45:17.002Z,14.90
2023-05-19T06:47:45.254Z,14.48
2023-05-19T06:50:13.457Z,14.38
2023-05-19T06:52:41.355Z,14.13
2023-05-19T06:55:08.822Z,14.82
2023-05-19T06:57:36.347Z,13.95
2023-05-19T07:00:04.496Z,14.35
2023-05-19T07:02:31.783Z,15.90
2023-05-19T07:04:59.435Z,16.27
2023-05-19T07:07:27.410Z,16.50
2023-05-19T07:09:54.972Z,16.30
2023-05-19T07:12:22.143Z,16.13
2023-05-19T07:14:49.460Z,16.08
2023-05-19T07:17:16.738Z,15.50
2023-05-19T07:19:44.278Z,16.25
2023-05-19T07:22:11.785Z,17.90
2023-05-19T07:24:38.851Z,20.17
2023-05-19T07:27:06.187Z,17.63
2023-05-19T07:29:33.391Z,18.20
2023-05-19T07:32:00.663Z,18.02
2023-05-19T07:34:27.937Z,16.40
2023-05-19T07:36:55.121Z,17.50
2023-05-19T07:39:25.268Z,15.98
2023-05-19T07:41:55.833Z,16.70
2023-05-19T07:46:50.099Z,17.35
2023-05-19T07:49:17.161Z,18.52
2023-05-19T07:51:45.161Z,17.95
2023-05-19T07:54:12.426Z,20.08
2023-05-19T07:56:39.752Z,18.70
2023-05-19T07:59:08.191Z,17.65
2023-05-19T08:01:35.475Z,19.05
2023-05-19T08:04:06.168Z,18.50
2023-05-19T08:06:33.408Z,19.33
2023-05-19T08:09:00.515Z,19.23
2023-05-19T08:11:27.729Z,18.13
2023-05-19T08:13:54.889Z,19.50
2023-05-19T08:16:22.149Z,18.67
2023-05-19T08:18:49.347Z,23.58
2023-05-19T08:21:16.879Z,19.38
2023-05-19T08:23:44.101Z,19.92
2023-05-19T08:26:11.306Z,19.95
2023-05-19T08:28:40.705Z,20.17
2023-05-19T08:31:07.827Z,20.17
2023-05-19T08:33:34.956Z,19.52
2023-05-19T08:36:02.131Z,20.02
2023-05-19T08:38:29.184Z,19.30
2023-05-19T08:40:58.241Z,20.95
2023-05-19T08:43:25.408Z,20.25
2023-05-19T08:45:54.208Z,19.35
2023-05-19T08:48:21.749Z,20.95
2023-05-19T08:51:25.066Z,19.45
2023-05-19T08:53:53.176Z,18.92
2023-05-19T08:56:26.949Z,22.90
2023-05-19T08:58:54.144Z,21.83
2023-05-19T09:01:21.394Z,19.60
2023-05-19T09:03:50.205Z,20.88
2023-05-19T09:06:17.901Z,20.60
2023-05-19T09:08:44.978Z,20.42
2023-05-19T09:11:12.467Z,20.88
2023-05-19T09:13:39.625Z,22.65
2023-05-19T09:16:07.117Z,21.83
2023-05-19T09:18:34.375Z,22.65
2023-05-19T09:21:03.203Z,20.63
2023-05-19T09:23:33.877Z,21.30
2023-05-19T09:28:33.463Z,22.20
2023-05-19T09:31:04.497Z,20.30
2023-05-19T09:33:33.765Z,20.95
2023-05-19T09:36:03.777Z,20.70
2023-05-19T09:38:30.994Z,21.38
2023-05-19T09:40:59.175Z,20.40
2023-05-19T09:43:33.816Z,18.88
2023-05-19T09:46:04.087Z,20.05
2023-05-19T09:48:31.289Z,20.52
2023-05-19T09:51:02.110Z,20.75
2023-05-19T09:53:32.759Z,21.23
2023-05-19T09:56:02.192Z,20.77
2023-05-19T09:58:35.595Z,21.67
2023-05-19T10:01:03.851Z,20.85
2023-05-19T10:03:32.760Z,19.77
2023-05-19T10:06:04.303Z,20.55
2023-05-19T10:08:32.039Z,21.23
2023-05-19T10:10:59.207Z,20.35
2023-05-19T10:13:26.806Z,20.50
2023-05-19T10:15:59.409Z,23.25
2023-05-19T10:18:30.376Z,21.42
2023-05-19T10:20:58.264Z,21.25
2023-05-19T10:23:25.984Z,24.08
2023-05-19T10:25:54.282Z,23.63
2023-05-19T10:28:23.732Z,22.00
2023-05-19T10:30:51.461Z,21.27
2023-05-19T10:33:21.276Z,22.48
2023-05-19T10:36:23.382Z,26.23
2023-05-19T10:39:01.259Z,29.60
2023-05-19T10:42:07.687Z,31.63
2023-05-19T10:45:04.786Z,34.58
2023-05-19T10:47:33.313Z,33.72
2023-05-19T10:50:04.822Z,32.53
2023-05-19T10:52:33.428Z,32.92
2023-05-19T10:55:02.156Z,30.33
2023-05-19T10:57:32.089Z,30.92
2023-05-19T11:00:10.797Z,29.00
2023-05-19T11:02:45.232Z,29.17
2023-05-19T11:05:18.455Z,28.52
2023-05-19T11:07:56.432Z,29.33
2023-05-19T11:10:24.116Z,24.65
2023-05-19T11:12:52.231Z,23.13
2023-05-19T11:15:19.464Z,22.88
2023-05-19T11:17:49.114Z,22.90
2023-05-19T11:20:26.590Z,21.27
2023-05-19T11:23:09.450Z,20.33
2023-05-19T11:25:50.456Z,17.33
2023-05-19T11:28:26.122Z,17.50
2023-05-19T11:30:57.590Z,16.90
2023-05-19T11:33:27.711Z,14.30
2023-05-19T11:35:58.673Z,14.90
2023-05-19T11:38:26.994Z,18.08
2023-05-19T11:40:54.333Z,15.90
2023-05-19T11:43:25.180Z,14.73
2023-05-19T11:45:54.311Z,12.75
2023-05-19T11:48:22.471Z,11.50
2023-05-19T11:50:50.048Z,12.57
2023-05-19T11:53:17.380Z,12.52
2023-05-19T11:55:48.074Z,11.38
2023-05-19T11:58:16.239Z,12.77
2023-05-19T12:00:46.254Z,11.95
2023-05-19T12:03:13.881Z,12.55
2023-05-19T12:05:48.235Z,12.00
2023-05-19T12:08:17.937Z,11.85
2023-05-19T12:10:45.630Z,11.88
2023-05-19T12:13:12.780Z,12.07
2023-05-19T12:15:39.902Z,12.80
2023-05-19T12:18:07.697Z,11.38
2023-05-19T12:20:37.942Z,12.70
2023-05-19T12:23:05.556Z,12.05
2023-05-19T12:25:33.077Z,13.13
2023-05-19T12:28:05.206Z,13.27
2023-05-19T12:30:33.622Z,13.10
2023-05-19T12:33:01.989Z,13.85
2023-05-19T12:35:30.856Z,14.95
2023-05-19T12:37:58.229Z,16.17
2023-05-19T12:40:26.562Z,15.10
2023-05-19T12:42:59.351Z,16.60
2023-05-19T12:45:28.671Z,14.27
2023-05-19T12:47:56.981Z,15.50
2023-05-19T12:50:31.408Z,13.63
2023-05-19T12:53:00.068Z,15.77
2023-05-19T12:55:27.470Z,15.55
2023-05-19T12:57:58.355Z,15.02
2023-05-19T13:00:28.425Z,15.93
2023-05-19T13:03:03.310Z,14.52
2023-05-19T13:05:31.991Z,16.20
2023-05-19T13:08:00.778Z,15.35
2023-05-19T13:10:28.426Z,15.32
2023-05-19T13:12:55.911Z,17.63
2023-05-19T13:15:24.760Z,16.48
2023-05-19T13:17:52.317Z,14.25
2023-05-19T13:20:20.362Z,14.90
2023-05-19T13:22:48.314Z,15.05
2023-05-19T13:25:15.630Z,14.77
2023-05-19T13:27:44.865Z,14.32
2023-05-19T13:30:12.547Z,14.20
2023-05-19T13:32:39.824Z,14.63
2023-05-19T13:35:07.527Z,14.82
2023-05-19T13:37:36.276Z,14.55
2023-05-19T13:40:03.835Z,15.13
2023-05-19T13:42:32.027Z,13.77
2023-05-19T13:44:59.219Z,14.77
2023-05-19T13:47:26.395Z,13.48
2023-05-19T13:49:53.586Z,13.73
2023-05-19T13:52:21.255Z,14.55
2023-05-19T13:54:48.785Z,14.05
2023-05-19T13:57:16.666Z,15.00
2023-05-19T13:59:57.696Z,14.93
2023-05-19T14:02:30.214Z,14.88
2023-05-19T14:04:57.723Z,15.05
2023-05-19T14:07:25.920Z,14.85
2023-05-19T14:09:55.544Z,15.77
2023-05-19T14:12:25.412Z,15.83
2023-05-19T14:14:58.781Z,15.10
2023-05-19T14:17:27.682Z,15.60
2023-05-19T14:19:55.018Z,14.15
2023-05-19T14:22:22.120Z,14.90
2023-05-19T14:24:49.265Z,16.23
2023-05-19T14:27:16.384Z,16.48
2023-05-19T14:29:43.710Z,16.30
2023-05-19T14:32:10.899Z,16.80
2023-05-19T14:34:37.955Z,15.73
2023-05-19T14:37:06.299Z,16.35
2023-05-19T14:39:33.365Z,16.63
2023-05-19T14:42:00.355Z,17.63
2023-05-19T14:44:33.062Z,16.98
2023-05-19T14:47:02.005Z,17.65
2023-05-19T14:49:29.325Z,16.67
2023-05-19T14:51:56.745Z,16.50
2023-05-19T14:54:23.854Z,18.35
2023-05-19T14:56:51.042Z,16.65
2023-05-19T14:59:18.153Z,18.15
2023-05-19T15:01:45.346Z,17.92
2023-05-19T15:04:12.647Z,17.92
2023-05-19T15:06:39.799Z,17.80
2023-05-19T15:09:07.191Z,19.08
2023-05-19T15:11:34.374Z,17.08
2023-05-19T15:14:01.674Z,16.95
2023-05-19T15:16:28.887Z,16.88
2023-05-19T15:18:56.369Z,17.80
2023-05-19T15:21:23.707Z,16.75
2023-05-19T15:23:50.852Z,17.70
2023-05-19T15:26:17.968Z,18.17
2023-05-19T15:28:45.129Z,18.58
2023-05-19T15:31:12.595Z,16.55
2023-05-19T15:33:39.826Z,17.42
2023-05-19T15:36:07.192Z,17.90
2023-05-19T15:38:37.692Z,18.20
2023-05-19T15:43:35.693Z,17.17
2023-05-19T15:46:05.125Z,17.95
2023-05-19T15:48:32.711Z,19.10
2023-05-19T15:51:00.149Z,18.80
2023-05-19T15:53:27.501Z,19.40
2023-05-19T15:55:54.758Z,19.73
2023-05-19T15:58:24.696Z,17.80
2023-05-19T16:00:52.165Z,19.75
2023-05-19T16:03:20.569Z,19.88
2023-05-19T16:05:50.393Z,18.75
2023-05-19T16:08:23.106Z,18.45
2023-05-19T16:10:58.338Z,19.08
2023-05-19T16:13:42.972Z,18.73
2023-05-19T16:16:10.483Z,22.58
2023-05-19T16:18:37.766Z,22.55
2023-05-19T16:21:05.292Z,19.63
2023-05-19T16:23:32.488Z,23.63
2023-05-19T16:25:59.622Z,19.80
2023-05-19T16:28:28.161Z,20.02
2023-05-19T16:31:01.247Z,17.55
2023-05-19T16:33:28.511Z,26.63
2023-05-19T16:35:56.285Z,33.20
2023-05-19T16:38:23.422Z,22.30
2023-05-19T16:40:50.585Z,19.42
2023-05-19T16:43:17.863Z,19.35
2023-05-19T16:45:45.080Z,21.23
2023-05-19T16:48:12.272Z,15.57
2023-05-19T16:50:40.079Z,15.15
2023-05-19T16:53:07.274Z,14.98
2023-05-19T16:55:34.337Z,15.23
2023-05-19T16:58:01.554Z,15.25
2023-05-19T17:00:29.985Z,15.52
2023-05-19T17:02:57.212Z,16.95
2023-05-19T17:05:24.321Z,16.38
2023-05-19T17:07:51.562Z,16.10
2023-05-19T17:10:18.804Z,15.07
2023-05-19T17:12:46.029Z,15.57
2023-05-19T17:15:13.108Z,17.10
2023-05-19T17:17:42.300Z,15.70
2023-05-19T17:20:09.973Z,22.50
2023-05-19T17:22:37.320Z,22.83
2023-05-19T17:25:04.788Z,19.35
2023-05-19T17:27:32.072Z,15.82
2023-05-19T17:29:59.227Z,20.35
2023-05-19T17:32:28.606Z,18.30
2023-05-19T17:34:56.129Z,16.73
2023-05-19T17:37:25.825Z,17.25
2023-05-19T17:39:53.092Z,21.87
2023-05-19T17:42:20.262Z,36.97
2023-05-19T17:44:47.490Z,23.30
2023-05-19T17:47:14.719Z,18.42
2023-05-19T17:49:41.926Z,17.88
2023-05-19T17:52:09.783Z,17.95
2023-05-19T17:54:37.274Z,16.48
2023-05-19T17:57:04.495Z,16.98
2023-05-19T17:59:31.936Z,16.08
2023-05-19T18:01:59.390Z,16.63
2023-05-19T18:04:26.810Z,18.05
2023-05-19T18:06:54.024Z,15.95
2023-05-19T18:09:21.572Z,15.63
2023-05-19T18:11:48.736Z,17.70
2023-05-19T18:14:15.993Z,16.05
2023-05-19T18:16:43.427Z,17.52
2023-05-19T18:19:11.052Z,16.90
2023-05-19T18:21:38.263Z,18.48
2023-05-19T18:24:06.252Z,19.02
2023-05-19T18:26:33.732Z,18.70
2023-05-19T18:29:04.924Z,19.95
2023-05-19T18:31:32.195Z,20.35
2023-05-19T18:33:59.298Z,20.63
2023-05-19T18:36:26.616Z,20.38
2023-05-19T18:38:55.257Z,21.52
2023-05-19T18:41:22.429Z,20.40
2023-05-19T18:43:49.542Z,22.05
2023-05-19T18:46:19.815Z,22.08
2023-05-19T18:48:47.464Z,22.63
2023-05-19T18:51:16.073Z,20.92
2023-05-19T18:53:43.222Z,23.55
2023-05-19T18:56:11.576Z,21.25
2023-05-19T18:58:38.733Z,20.52
2023-05-19T19:01:06.109Z,22.70
2023-05-19T19:03:33.239Z,22.77
2023-05-19T19:06:00.641Z,22.45
2023-05-19T19:08:27.775Z,23.45
2023-05-19T19:10:59.386Z,26.67
2023-05-19T19:13:27.049Z,28.65
2023-05-19T19:15:54.238Z,34.25
2023-05-19T19:18:21.573Z,33.00
2023-05-19T19:20:48.643Z,33.72
2023-05-19T19:23:16.269Z,33.65
2023-05-19T19:25:43.403Z,33.30
2023-05-19T19:28:10.874Z,33.30
2023-05-19T19:30:38.043Z,33.72
2023-05-19T19:33:06.700Z,33.47
2023-05-19T19:35:34.033Z,34.15
2023-05-19T19:38:01.660Z,39.83
2023-05-19T19:40:29.464Z,40.28
2023-05-19T19:42:56.826Z,43.58
2023-05-19T19:45:24.073Z,43.97
2023-05-19T19:47:51.960Z,42.80
2023-05-19T19:50:19.220Z,45.08
2023-05-19T19:52:46.375Z,42.88
2023-05-19T19:55:13.720Z,45.97
2023-05-19T19:57:40.890Z,46.78
2023-05-19T20:00:09.091Z,47.33
2023-05-19T20:02:45.589Z,43.20
2023-05-19T20:05:22.840Z,41.33
2023-05-19T20:07:49.983Z,41.17
2023-05-19T20:10:17.182Z,43.00
2023-05-19T20:12:44.610Z,42.55
2023-05-19T20:15:11.944Z,43.70
2023-05-19T20:17:39.007Z,41.38
2023-05-19T20:20:11.149Z,41.97
2023-05-19T20:22:38.959Z,41.13
2023-05-19T20:25:07.049Z,41.42
2023-05-19T20:27:34.582Z,42.28
2023-05-19T20:30:01.766Z,41.35
2023-05-19T20:32:28.930Z,42.13
2023-05-19T20:34:56.058Z,42.47
2023-05-19T20:37:23.200Z,43.47
2023-05-19T20:39:50.308Z,43.45
2023-05-19T20:42:17.423Z,47.75
2023-05-19T20:44:44.510Z,46.63
2023-05-19T20:47:11.791Z,45.45
2023-05-19T20:49:39.082Z,47.08
2023-05-19T20:52:06.510Z,51.55
2023-05-19T20:54:33.559Z,52.22
2023-05-19T20:57:01.422Z,50.85
2023-05-19T20:59:28.477Z,50.10
2023-05-19T21:01:55.654Z,50.05
2023-05-19T21:04:22.815Z,51.90
2023-05-19T21:06:50.224Z,49.72
2023-05-19T21:09:17.600Z,52.13
2023-05-19T21:11:45.221Z,51.28
2023-05-19T21:14:12.472Z,52.30
2023-05-19T21:16:39.950Z,52.33
2023-05-19T21:19:07.252Z,51.30
2023-05-19T21:21:34.518Z,51.58
2023-05-19T21:24:01.590Z,50.10
2023-05-19T21:26:28.709Z,53.38
2023-05-19T21:28:56.036Z,54.17
2023-05-19T21:31:23.315Z,54.03
2023-05-19T21:33:50.484Z,53.10
2023-05-19T21:36:18.460Z,52.75
2023-05-19T21:38:45.678Z,54.30
2023-05-19T21:41:13.079Z,54.78
2023-05-19T21:43:41.491Z,55.55
2023-05-19T21:46:08.751Z,58.72
2023-05-19T21:48:35.944Z,60.83
2023-05-19T21:51:04.670Z,60.30
2023-05-19T21:53:33.021Z,56.35
2023-05-19T21:56:00.460Z,63.80
2023-05-19T21:58:27.565Z,61.90
2023-05-19T22:00:56.467Z,60.53
2023-05-19T22:03:23.787Z,59.00
2023-05-19T22:05:51.993Z,57.70
2023-05-19T22:08:19.562Z,57.67
2023-05-19T22:10:52.253Z,54.45
2023-05-19T22:13:20.365Z,58.25
2023-05-19T22:15:47.611Z,56.13
2023-05-19T22:18:14.724Z,59.42
2023-05-19T22:20:42.048Z,58.33
2023-05-19T22:23:12.317Z,57.25
2023-05-19T22:25:39.685Z,55.25
2023-05-19T22:28:08.396Z,57.35
2023-05-19T22:30:41.130Z,56.95
2023-05-19T22:33:11.823Z,53.22
2023-05-19T22:35:39.241Z,55.65
2023-05-19T22:38:07.493Z,53.35
2023-05-19T22:40:36.865Z,55.80
2023-05-19T22:43:04.113Z,55.10
2023-05-19T22:45:31.972Z,56.25
2023-05-19T22:47:59.431Z,54.20
2023-05-19T22:50:26.656Z,53.80
2023-05-19T22:52:53.935Z,54.40
2023-05-19T22:55:21.203Z,56.78
2023-05-19T22:57:48.410Z,54.22
2023-05-19T23:00:21.426Z,56.35
2023-05-19T23:02:48.621Z,54.85
2023-05-19T23:05:15.961Z,53.33
2023-05-19T23:07:43.132Z,56.30
2023-05-19T23:10:10.770Z,54.00
2023-05-19T23:12:40.325Z,50.67
2023-05-19T23:15:08.704Z,51.22
2023-05-19T23:17:36.520Z,50.95
2023-05-19T23:20:04.234Z,51.55
2023-05-19T23:22:31.544Z,52.33
2023-05-19T23:24:58.874Z,49.83
2023-05-19T23:27:26.159Z,49.70
2023-05-19T23:29:53.696Z,50.25
2023-05-19T23:32:20.895Z,49.08
2023-05-19T23:34:48.850Z,48.20
2023-05-19T23:37:16.319Z,48.97
2023-05-19T23:39:43.666Z,49.22
2023-05-19T23:42:10.876Z,49.35
2023-05-19T23:44:38.009Z,46.88
2023-05-19T23:47:05.412Z,48.58
2023-05-19T23:49:32.485Z,46.50
2023-05-19T23:51:59.634Z,47.47
2023-05-19T23:54:26.933Z,45.78
2023-05-19T23:56:55.920Z,45.25
2023-05-19T23:59:23.265Z,43.35
